ADDS METAR Data INFO
IDs: Format: Raw Decoded Include TAF

Data at: 0046 UTC 22 Oct 2017

KHEI 212353Z AUTO 29018G25KT 10SM BKN065 10/M05 A2983 RMK AO2 PK WND 29030/2330 SLP107 T01001050 10133 20094 53027
KHEI 212253Z AUTO 30020G26KT 10SM BKN070 11/M03 A2980 RMK AO2 PK WND 30036/2158 SLP093 T01111033
KHEI 212153Z AUTO 29030G41KT 10SM OVC060 12/M04 A2977 RMK AO2 PK WND 30041/2146 SLP083 T01221039
KHEI 212053Z AUTO 31028G36KT 10SM BKN046 12/M01 A2975 RMK AO2 PK WND 29042/2022 SLP075 T01171011 53012
KHEI 211953Z AUTO 30030G37KT 10SM OVC038 11/M01 A2973 RMK AO2 PK WND 29038/1913 SLP072 T01061006
KHEI 211853Z AUTO 29028G39KT 10SM OVC037 11/00 A2971 RMK AO2 PK WND 29039/1846 SLP064 T01060000
KHEI 211753Z AUTO 29023G35KT 10SM SCT039 09/M01 A2971 RMK AO2 PK WND 29037/1740 SLP060 T00941006 10094 20078 51017
KHEI 211653Z AUTO 29026G33KT 10SM CLR 08/M01 A2970 RMK AO2 PK WND 29035/1626 SLP055 T00831006
KHEI 211553Z AUTO 28024G32KT 10SM CLR 08/M01 A2968 RMK AO2 PK WND 30035/1516 SLP053 T00831011
KHEI 211453Z AUTO 29025G33KT 10SM SCT100 08/M02 A2965 RMK AO2 PK WND 30035/1409 SLP043 T00781017 53022
KHEI 211353Z AUTO 29026G32KT 10SM CLR 08/M02 A2963 RMK AO2 PK WND 30035/1318 SLP033 T00781017
KHEI 211253Z AUTO 29024G33KT 10SM CLR 08/M02 A2960 RMK AO2 PK WND 29034/1155 SLP019 T00781017
KHEI 211153Z AUTO 28025G33KT 10SM SCT120 08/M01 A2958 RMK AO2 PK WND 29036/1054 SLP011 T00831006 10122 20078 53013
KHEI 211053Z AUTO 29029G36KT 10SM SCT120 08/00 A2954 RMK AO2 PK WND 29036/1053 SLP992 T00830000
KHEI 210953Z AUTO 29024G31KT 10SM OVC100 08/01 A2953 RMK AO2 PK WND 27032/0912 SLP986 T00830011
KHEI 210853Z AUTO 28017G26KT 10SM BKN110 08/02 A2954 RMK AO2 PK WND 29028/0831 SLP991 T00830022 53044
KHEI 210753Z AUTO 28022G29KT 10SM CLR 08/03 A2948 RMK AO2 PK WND 27029/0751 SLP971 T00830028
KHEI 210653Z AUTO 28012KT 10SM CLR 11/04 A2944 RMK AO2 SLP955 T01060044 402890011
KHEI 210553Z AUTO 30014KT 10SM CLR 12/04 A2940 RMK AO2 PK WND 31031/0502 SLP943 T01220044 10222 20100 53045
KHEI 210453Z AUTO 30021G30KT 10SM CLR 16/04 A2935 RMK AO2 PK WND 30036/0442 SLP925 T01610039
KHEI 210353Z AUTO 10003KT 10SM CLR 12/02 A2928 RMK AO2 SLP906 T01170017
KHEI 210253Z AUTO 20007KT 10SM CLR 13/02 A2926 RMK AO2 SLP900 T01330017 53001
KHEI 210153Z AUTO 20008KT 10SM CLR 16/02 A2925 RMK AO2 SLP900 T01610017
KHEI 210053Z AUTO 19008KT 10SM CLR 19/02 A2926 RMK AO2 SLP902 T01890017
KHEI 202353Z AUTO 20010KT 10SM CLR 22/02 A2926 RMK AO2 SLP900 T02170017 10289 20217 56008
KHEI 202253Z AUTO 22013KT 10SM CLR 27/01 A2926 RMK AO2 SLP894 T02670006
KHEI 202153Z AUTO 18014KT 10SM CLR 28/01 A2926 RMK AO2 SLP893 T02830011
KHEI 202053Z AUTO 18016G20KT 10SM CLR 28/01 A2928 RMK AO2 SLP900 T02830011 56032
KHEI 201953Z AUTO 18016G22KT 10SM CLR 27/01 A2930 RMK AO2 SLP907 T02720011
KHEI 201853Z AUTO 20011KT 10SM CLR 26/00 A2934 RMK AO2 SLP920 T02610000
KHEI 201753Z AUTO 18009KT 10SM CLR 23/01 A2939 RMK AO2 SLP943 T02280006 10228 20039 58023
KHEI 201653Z AUTO 17006KT 10SM CLR 20/00 A2942 RMK AO2 SLP954 T02000000
KHEI 201553Z AUTO 18006KT 10SM CLR 17/00 A2944 RMK AO2 SLP966 T01720000
KHEI 201453Z AUTO 14004KT 10SM CLR 14/M02 A2946 RMK AO2 SLP971 T01391017 56015
KHEI 201353Z AUTO 00000KT 10SM CLR 09/M03 A2947 RMK AO2 SLP979 T00941028
KHEI 201253Z AUTO 16004KT 10SM CLR 07/M03 A2948 RMK AO2 SLP982 T00671033